sensor_id;sensor_type;location;lat;lon;timestamp;P1;durP1;ratioP1;P2;durP2;ratioP2
19842;SDS011;10082;51.038;6.992;2023-04-03T00:00:21;6.10;;;5.50;;
19842;SDS011;10082;51.038;6.992;2023-04-03T00:02:49;5.93;;;5.33;;
19842;SDS011;10082;51.038;6.992;2023-04-03T00:05:16;5.83;;;5.40;;
19842;SDS011;10082;51.038;6.992;2023-04-03T00:07:43;5.47;;;5.07;;
19842;SDS011;10082;51.038;6.992;2023-04-03T00:10:11;5.70;;;5.20;;
19842;SDS011;10082;51.038;6.992;2023-04-03T00:12:40;5.57;;;4.90;;
19842;SDS011;10082;51.038;6.992;2023-04-03T00:15:10;5.83;;;5.10;;
19842;SDS011;10082;51.038;6.992;2023-04-03T00:17:38;6.00;;;5.43;;
19842;SDS011;10082;51.038;6.992;2023-04-03T00:20:05;6.37;;;5.77;;
19842;SDS011;10082;51.038;6.992;2023-04-03T00:22:33;5.87;;;5.37;;
19842;SDS011;10082;51.038;6.992;2023-04-03T00:25:00;6.00;;;5.37;;
19842;SDS011;10082;51.038;6.992;2023-04-03T00:27:28;5.67;;;5.17;;
19842;SDS011;10082;51.038;6.992;2023-04-03T00:29:55;6.03;;;5.43;;
19842;SDS011;10082;51.038;6.992;2023-04-03T00:32:25;6.10;;;5.50;;
19842;SDS011;10082;51.038;6.992;2023-04-03T00:34:52;6.00;;;5.43;;
19842;SDS011;10082;51.038;6.992;2023-04-03T00:37:20;5.83;;;5.33;;
19842;SDS011;10082;51.038;6.992;2023-04-03T00:39:47;6.20;;;5.67;;
19842;SDS011;10082;51.038;6.992;2023-04-03T00:42:16;6.00;;;5.50;;
19842;SDS011;10082;51.038;6.992;2023-04-03T00:47:55;6.23;;;5.63;;
19842;SDS011;10082;51.038;6.992;2023-04-03T00:50:25;5.83;;;5.30;;
19842;SDS011;10082;51.038;6.992;2023-04-03T00:52:55;5.93;;;5.43;;
19842;SDS011;10082;51.038;6.992;2023-04-03T00:55:23;7.57;;;5.57;;
19842;SDS011;10082;51.038;6.992;2023-04-03T00:57:50;5.73;;;5.33;;
19842;SDS011;10082;51.038;6.992;2023-04-03T01:00:19;6.67;;;5.90;;
19842;SDS011;10082;51.038;6.992;2023-04-03T01:02:51;5.67;;;5.23;;
19842;SDS011;10082;51.038;6.992;2023-04-03T01:05:21;6.37;;;5.83;;
19842;SDS011;10082;51.038;6.992;2023-04-03T01:07:49;6.60;;;6.00;;
19842;SDS011;10082;51.038;6.992;2023-04-03T01:10:18;6.43;;;5.77;;
19842;SDS011;10082;51.038;6.992;2023-04-03T01:12:47;6.07;;;5.57;;
19842;SDS011;10082;51.038;6.992;2023-04-03T01:15:16;6.10;;;5.50;;
19842;SDS011;10082;51.038;6.992;2023-04-03T01:17:46;5.90;;;5.30;;
19842;SDS011;10082;51.038;6.992;2023-04-03T01:23:17;7.07;;;6.27;;
19842;SDS011;10082;51.038;6.992;2023-04-03T01:25:52;6.20;;;5.67;;
19842;SDS011;10082;51.038;6.992;2023-04-03T01:28:22;6.20;;;5.60;;
19842;SDS011;10082;51.038;6.992;2023-04-03T01:30:53;5.70;;;5.30;;
19842;SDS011;10082;51.038;6.992;2023-04-03T01:33:32;6.77;;;6.07;;
19842;SDS011;10082;51.038;6.992;2023-04-03T01:36:01;6.07;;;5.50;;
19842;SDS011;10082;51.038;6.992;2023-04-03T01:38:29;6.23;;;5.63;;
19842;SDS011;10082;51.038;6.992;2023-04-03T01:40:56;5.87;;;5.23;;
19842;SDS011;10082;51.038;6.992;2023-04-03T01:43:33;5.30;;;4.90;;
19842;SDS011;10082;51.038;6.992;2023-04-03T01:46:01;5.67;;;5.17;;
19842;SDS011;10082;51.038;6.992;2023-04-03T01:48:28;5.60;;;5.17;;
19842;SDS011;10082;51.038;6.992;2023-04-03T01:50:57;5.70;;;5.17;;
19842;SDS011;10082;51.038;6.992;2023-04-03T01:53:24;5.60;;;5.10;;
19842;SDS011;10082;51.038;6.992;2023-04-03T01:55:52;5.90;;;5.40;;
19842;SDS011;10082;51.038;6.992;2023-04-03T01:58:20;5.23;;;4.60;;
19842;SDS011;10082;51.038;6.992;2023-04-03T02:00:51;5.63;;;5.13;;
19842;SDS011;10082;51.038;6.992;2023-04-03T02:03:19;5.40;;;4.90;;
19842;SDS011;10082;51.038;6.992;2023-04-03T02:05:52;5.07;;;4.60;;
19842;SDS011;10082;51.038;6.992;2023-04-03T02:08:21;4.80;;;4.30;;
19842;SDS011;10082;51.038;6.992;2023-04-03T02:10:48;5.07;;;4.67;;
19842;SDS011;10082;51.038;6.992;2023-04-03T02:13:17;5.20;;;4.80;;
19842;SDS011;10082;51.038;6.992;2023-04-03T02:15:45;5.50;;;4.87;;
19842;SDS011;10082;51.038;6.992;2023-04-03T02:18:16;6.37;;;5.13;;
19842;SDS011;10082;51.038;6.992;2023-04-03T02:20:43;4.87;;;4.50;;
19842;SDS011;10082;51.038;6.992;2023-04-03T02:23:11;5.40;;;4.90;;
19842;SDS011;10082;51.038;6.992;2023-04-03T02:25:44;5.13;;;4.73;;
19842;SDS011;10082;51.038;6.992;2023-04-03T02:28:16;4.77;;;4.37;;
19842;SDS011;10082;51.038;6.992;2023-04-03T02:30:44;4.50;;;4.10;;
19842;SDS011;10082;51.038;6.992;2023-04-03T02:33:12;4.90;;;4.33;;
19842;SDS011;10082;51.038;6.992;2023-04-03T02:35:40;5.00;;;4.17;;
19842;SDS011;10082;51.038;6.992;2023-04-03T02:38:07;4.70;;;4.30;;
19842;SDS011;10082;51.038;6.992;2023-04-03T02:40:34;4.97;;;4.00;;
19842;SDS011;10082;51.038;6.992;2023-04-03T02:43:03;4.07;;;3.77;;
19842;SDS011;10082;51.038;6.992;2023-04-03T02:45:37;4.23;;;3.93;;
19842;SDS011;10082;51.038;6.992;2023-04-03T02:48:05;4.33;;;3.87;;
19842;SDS011;10082;51.038;6.992;2023-04-03T02:50:34;4.10;;;3.80;;
19842;SDS011;10082;51.038;6.992;2023-04-03T02:53:01;4.00;;;3.60;;
19842;SDS011;10082;51.038;6.992;2023-04-03T02:55:29;3.97;;;3.67;;
19842;SDS011;10082;51.038;6.992;2023-04-03T02:57:56;4.17;;;3.77;;
19842;SDS011;10082;51.038;6.992;2023-04-03T03:00:25;3.73;;;3.43;;
19842;SDS011;10082;51.038;6.992;2023-04-03T03:02:52;4.03;;;3.73;;
19842;SDS011;10082;51.038;6.992;2023-04-03T03:05:20;3.60;;;3.07;;
19842;SDS011;10082;51.038;6.992;2023-04-03T03:07:47;3.33;;;3.03;;
19842;SDS011;10082;51.038;6.992;2023-04-03T03:10:15;4.90;;;3.03;;
19842;SDS011;10082;51.038;6.992;2023-04-03T03:12:44;3.70;;;3.40;;
19842;SDS011;10082;51.038;6.992;2023-04-03T03:15:11;3.17;;;2.97;;
19842;SDS011;10082;51.038;6.992;2023-04-03T03:17:42;4.53;;;3.17;;
19842;SDS011;10082;51.038;6.992;2023-04-03T03:20:11;3.73;;;3.13;;
19842;SDS011;10082;51.038;6.992;2023-04-03T03:22:40;5.30;;;3.37;;
19842;SDS011;10082;51.038;6.992;2023-04-03T03:25:11;3.57;;;3.03;;
19842;SDS011;10082;51.038;6.992;2023-04-03T03:27:39;3.17;;;2.87;;
19842;SDS011;10082;51.038;6.992;2023-04-03T03:30:07;2.63;;;2.43;;
19842;SDS011;10082;51.038;6.992;2023-04-03T03:32:35;3.67;;;2.80;;
19842;SDS011;10082;51.038;6.992;2023-04-03T03:35:04;3.00;;;2.70;;
19842;SDS011;10082;51.038;6.992;2023-04-03T03:37:32;5.13;;;2.67;;
19842;SDS011;10082;51.038;6.992;2023-04-03T03:40:01;2.87;;;2.53;;
19842;SDS011;10082;51.038;6.992;2023-04-03T03:42:30;3.30;;;2.30;;
19842;SDS011;10082;51.038;6.992;2023-04-03T03:44:57;2.80;;;2.23;;
19842;SDS011;10082;51.038;6.992;2023-04-03T03:47:24;3.30;;;2.33;;
19842;SDS011;10082;51.038;6.992;2023-04-03T03:49:52;2.80;;;2.60;;
19842;SDS011;10082;51.038;6.992;2023-04-03T03:52:24;3.90;;;2.30;;
19842;SDS011;10082;51.038;6.992;2023-04-03T03:54:53;2.87;;;2.30;;
19842;SDS011;10082;51.038;6.992;2023-04-03T03:57:21;2.83;;;2.10;;
19842;SDS011;10082;51.038;6.992;2023-04-03T03:59:48;2.87;;;2.20;;
19842;SDS011;10082;51.038;6.992;2023-04-03T04:02:18;2.87;;;2.13;;
19842;SDS011;10082;51.038;6.992;2023-04-03T04:04:46;3.30;;;2.60;;
19842;SDS011;10082;51.038;6.992;2023-04-03T04:07:13;2.40;;;1.93;;
19842;SDS011;10082;51.038;6.992;2023-04-03T04:09:43;3.27;;;2.00;;
19842;SDS011;10082;51.038;6.992;2023-04-03T04:12:11;2.47;;;1.80;;
19842;SDS011;10082;51.038;6.992;2023-04-03T04:14:42;2.73;;;2.10;;
19842;SDS011;10082;51.038;6.992;2023-04-03T04:17:12;4.13;;;2.17;;
19842;SDS011;10082;51.038;6.992;2023-04-03T04:19:39;4.43;;;2.00;;
19842;SDS011;10082;51.038;6.992;2023-04-03T04:22:07;3.60;;;1.90;;
19842;SDS011;10082;51.038;6.992;2023-04-03T04:24:35;3.30;;;1.77;;
19842;SDS011;10082;51.038;6.992;2023-04-03T04:27:03;2.80;;;1.90;;
19842;SDS011;10082;51.038;6.992;2023-04-03T04:29:33;3.73;;;2.00;;
19842;SDS011;10082;51.038;6.992;2023-04-03T04:32:04;2.40;;;2.20;;
19842;SDS011;10082;51.038;6.992;2023-04-03T04:34:32;2.40;;;1.93;;
19842;SDS011;10082;51.038;6.992;2023-04-03T04:37:00;3.23;;;1.70;;
19842;SDS011;10082;51.038;6.992;2023-04-03T04:39:28;2.33;;;1.97;;
19842;SDS011;10082;51.038;6.992;2023-04-03T04:41:57;3.03;;;2.10;;
19842;SDS011;10082;51.038;6.992;2023-04-03T04:44:30;3.47;;;2.33;;
19842;SDS011;10082;51.038;6.992;2023-04-03T04:46:57;3.70;;;2.17;;
19842;SDS011;10082;51.038;6.992;2023-04-03T04:49:25;2.00;;;1.80;;
19842;SDS011;10082;51.038;6.992;2023-04-03T04:54:33;1.80;;;1.70;;
19842;SDS011;10082;51.038;6.992;2023-04-03T04:57:01;2.53;;;1.80;;
19842;SDS011;10082;51.038;6.992;2023-04-03T04:59:31;2.83;;;1.70;;
19842;SDS011;10082;51.038;6.992;2023-04-03T05:01:58;3.73;;;1.70;;
19842;SDS011;10082;51.038;6.992;2023-04-03T05:04:26;4.60;;;2.13;;
19842;SDS011;10082;51.038;6.992;2023-04-03T05:06:59;2.53;;;1.90;;
19842;SDS011;10082;51.038;6.992;2023-04-03T05:09:29;2.00;;;1.63;;
19842;SDS011;10082;51.038;6.992;2023-04-03T05:11:56;2.50;;;1.90;;
19842;SDS011;10082;51.038;6.992;2023-04-03T05:14:27;3.83;;;1.87;;
19842;SDS011;10082;51.038;6.992;2023-04-03T05:17:02;3.77;;;1.70;;
19842;SDS011;10082;51.038;6.992;2023-04-03T05:19:32;3.13;;;1.83;;
19842;SDS011;10082;51.038;6.992;2023-04-03T05:22:02;3.30;;;2.00;;
19842;SDS011;10082;51.038;6.992;2023-04-03T05:24:29;3.97;;;2.33;;
19842;SDS011;10082;51.038;6.992;2023-04-03T05:26:57;2.93;;;2.10;;
19842;SDS011;10082;51.038;6.992;2023-04-03T05:29:25;3.27;;;1.93;;
19842;SDS011;10082;51.038;6.992;2023-04-03T05:31:53;2.53;;;1.80;;
19842;SDS011;10082;51.038;6.992;2023-04-03T05:34:26;2.37;;;1.67;;
19842;SDS011;10082;51.038;6.992;2023-04-03T05:36:55;3.57;;;2.00;;
19842;SDS011;10082;51.038;6.992;2023-04-03T05:39:24;4.70;;;1.97;;
19842;SDS011;10082;51.038;6.992;2023-04-03T05:41:51;4.03;;;2.00;;
19842;SDS011;10082;51.038;6.992;2023-04-03T05:44:18;2.87;;;1.93;;
19842;SDS011;10082;51.038;6.992;2023-04-03T05:46:47;3.03;;;1.87;;
19842;SDS011;10082;51.038;6.992;2023-04-03T05:49:15;3.57;;;2.17;;
19842;SDS011;10082;51.038;6.992;2023-04-03T05:51:45;3.53;;;1.87;;
19842;SDS011;10082;51.038;6.992;2023-04-03T05:54:23;3.43;;;2.40;;
19842;SDS011;10082;51.038;6.992;2023-04-03T05:57:05;2.97;;;1.77;;
19842;SDS011;10082;51.038;6.992;2023-04-03T05:59:33;2.50;;;1.80;;
19842;SDS011;10082;51.038;6.992;2023-04-03T06:02:00;3.43;;;2.20;;
19842;SDS011;10082;51.038;6.992;2023-04-03T06:04:28;2.27;;;1.90;;
19842;SDS011;10082;51.038;6.992;2023-04-03T06:07:00;3.67;;;1.90;;
19842;SDS011;10082;51.038;6.992;2023-04-03T06:09:27;3.13;;;1.70;;
19842;SDS011;10082;51.038;6.992;2023-04-03T06:11:55;3.40;;;2.03;;
19842;SDS011;10082;51.038;6.992;2023-04-03T06:14:24;3.87;;;2.07;;
19842;SDS011;10082;51.038;6.992;2023-04-03T06:16:52;2.57;;;1.83;;
19842;SDS011;10082;51.038;6.992;2023-04-03T06:19:20;2.07;;;1.70;;
19842;SDS011;10082;51.038;6.992;2023-04-03T06:21:50;4.80;;;2.00;;
19842;SDS011;10082;51.038;6.992;2023-04-03T06:24:18;3.03;;;1.80;;
19842;SDS011;10082;51.038;6.992;2023-04-03T06:26:47;2.87;;;1.80;;
19842;SDS011;10082;51.038;6.992;2023-04-03T06:29:16;3.83;;;2.03;;
19842;SDS011;10082;51.038;6.992;2023-04-03T06:31:43;3.20;;;1.70;;
19842;SDS011;10082;51.038;6.992;2023-04-03T06:34:11;3.20;;;1.83;;
19842;SDS011;10082;51.038;6.992;2023-04-03T06:36:39;2.40;;;1.70;;
19842;SDS011;10082;51.038;6.992;2023-04-03T06:39:08;3.87;;;2.20;;
19842;SDS011;10082;51.038;6.992;2023-04-03T06:41:37;2.60;;;1.80;;
19842;SDS011;10082;51.038;6.992;2023-04-03T06:44:06;2.37;;;1.77;;
19842;SDS011;10082;51.038;6.992;2023-04-03T06:46:36;2.53;;;1.80;;
19842;SDS011;10082;51.038;6.992;2023-04-03T06:49:04;2.30;;;1.57;;
19842;SDS011;10082;51.038;6.992;2023-04-03T06:51:48;3.60;;;1.60;;
19842;SDS011;10082;51.038;6.992;2023-04-03T06:54:17;4.13;;;1.60;;
19842;SDS011;10082;51.038;6.992;2023-04-03T06:56:46;4.70;;;1.77;;
19842;SDS011;10082;51.038;6.992;2023-04-03T06:59:21;3.57;;;1.60;;
19842;SDS011;10082;51.038;6.992;2023-04-03T07:01:52;2.27;;;1.40;;
19842;SDS011;10082;51.038;6.992;2023-04-03T07:04:22;2.60;;;1.30;;
19842;SDS011;10082;51.038;6.992;2023-04-03T07:06:50;3.93;;;1.53;;
19842;SDS011;10082;51.038;6.992;2023-04-03T07:09:20;3.37;;;1.57;;
19842;SDS011;10082;51.038;6.992;2023-04-03T07:11:49;1.70;;;1.40;;
19842;SDS011;10082;51.038;6.992;2023-04-03T07:14:17;2.17;;;1.67;;
19842;SDS011;10082;51.038;6.992;2023-04-03T07:16:46;2.73;;;1.30;;
19842;SDS011;10082;51.038;6.992;2023-04-03T07:19:14;2.50;;;1.43;;
19842;SDS011;10082;51.038;6.992;2023-04-03T07:21:41;3.47;;;1.73;;
19842;SDS011;10082;51.038;6.992;2023-04-03T07:24:08;1.70;;;1.20;;
19842;SDS011;10082;51.038;6.992;2023-04-03T07:26:36;1.92;;;1.25;;
19842;SDS011;10082;51.038;6.992;2023-04-03T07:29:05;3.33;;;1.60;;
19842;SDS011;10082;51.038;6.992;2023-04-03T07:31:32;1.52;;;1.20;;
19842;SDS011;10082;51.038;6.992;2023-04-03T07:33:59;1.38;;;1.20;;
19842;SDS011;10082;51.038;6.992;2023-04-03T07:36:29;2.15;;;1.52;;
19842;SDS011;10082;51.038;6.992;2023-04-03T07:38:58;1.98;;;1.23;;
19842;SDS011;10082;51.038;6.992;2023-04-03T07:41:26;3.10;;;1.40;;
19842;SDS011;10082;51.038;6.992;2023-04-03T07:43:54;2.17;;;1.25;;
19842;SDS011;10082;51.038;6.992;2023-04-03T07:46:23;2.65;;;1.30;;
19842;SDS011;10082;51.038;6.992;2023-04-03T07:48:51;1.92;;;1.08;;
19842;SDS011;10082;51.038;6.992;2023-04-03T07:51:18;2.95;;;1.27;;
19842;SDS011;10082;51.038;6.992;2023-04-03T07:53:46;2.05;;;0.98;;
19842;SDS011;10082;51.038;6.992;2023-04-03T07:56:14;1.77;;;0.93;;
19842;SDS011;10082;51.038;6.992;2023-04-03T07:58:46;2.72;;;1.10;;
19842;SDS011;10082;51.038;6.992;2023-04-03T08:01:13;1.83;;;1.10;;
19842;SDS011;10082;51.038;6.992;2023-04-03T08:03:42;1.80;;;0.90;;
19842;SDS011;10082;51.038;6.992;2023-04-03T08:06:10;1.77;;;0.98;;
19842;SDS011;10082;51.038;6.992;2023-04-03T08:08:38;2.45;;;1.00;;
19842;SDS011;10082;51.038;6.992;2023-04-03T08:11:06;2.42;;;1.10;;
19842;SDS011;10082;51.038;6.992;2023-04-03T08:13:34;4.05;;;1.20;;
19842;SDS011;10082;51.038;6.992;2023-04-03T08:16:07;2.05;;;1.05;;
19842;SDS011;10082;51.038;6.992;2023-04-03T08:18:37;2.65;;;1.15;;
19842;SDS011;10082;51.038;6.992;2023-04-03T08:21:08;3.17;;;1.23;;
19842;SDS011;10082;51.038;6.992;2023-04-03T08:23:37;2.60;;;1.58;;
19842;SDS011;10082;51.038;6.992;2023-04-03T08:26:07;1.95;;;1.00;;
19842;SDS011;10082;51.038;6.992;2023-04-03T08:28:35;1.05;;;0.93;;
19842;SDS011;10082;51.038;6.992;2023-04-03T08:31:03;1.40;;;0.95;;
19842;SDS011;10082;51.038;6.992;2023-04-03T08:33:32;1.73;;;1.02;;
19842;SDS011;10082;51.038;6.992;2023-04-03T08:36:01;1.30;;;1.10;;
19842;SDS011;10082;51.038;6.992;2023-04-03T08:38:31;2.30;;;1.38;;
19842;SDS011;10082;51.038;6.992;2023-04-03T08:41:02;2.63;;;1.10;;
19842;SDS011;10082;51.038;6.992;2023-04-03T08:43:40;1.50;;;0.88;;
19842;SDS011;10082;51.038;6.992;2023-04-03T08:46:21;1.63;;;1.00;;
19842;SDS011;10082;51.038;6.992;2023-04-03T08:48:51;1.75;;;1.00;;
19842;SDS011;10082;51.038;6.992;2023-04-03T08:51:21;1.23;;;0.90;;
19842;SDS011;10082;51.038;6.992;2023-04-03T08:53:54;0.98;;;0.88;;
19842;SDS011;10082;51.038;6.992;2023-04-03T08:56:27;3.63;;;0.90;;
19842;SDS011;10082;51.038;6.992;2023-04-03T08:59:00;2.95;;;1.20;;
19842;SDS011;10082;51.038;6.992;2023-04-03T09:01:34;1.38;;;0.70;;
19842;SDS011;10082;51.038;6.992;2023-04-03T09:04:05;1.35;;;1.00;;
19842;SDS011;10082;51.038;6.992;2023-04-03T09:06:41;0.75;;;0.70;;
19842;SDS011;10082;51.038;6.992;2023-04-03T09:09:19;1.02;;;0.93;;
19842;SDS011;10082;51.038;6.992;2023-04-03T09:12:00;2.15;;;1.10;;
19842;SDS011;10082;51.038;6.992;2023-04-03T09:14:39;1.20;;;0.95;;
19842;SDS011;10082;51.038;6.992;2023-04-03T09:17:31;1.45;;;0.85;;
19842;SDS011;10082;51.038;6.992;2023-04-03T09:20:11;2.03;;;0.80;;
19842;SDS011;10082;51.038;6.992;2023-04-03T09:22:45;0.75;;;0.65;;
19842;SDS011;10082;51.038;6.992;2023-04-03T09:25:16;0.93;;;0.70;;
19842;SDS011;10082;51.038;6.992;2023-04-03T09:27:47;1.17;;;0.70;;
19842;SDS011;10082;51.038;6.992;2023-04-03T09:30:19;1.67;;;0.75;;
19842;SDS011;10082;51.038;6.992;2023-04-03T09:32:49;1.55;;;0.80;;
19842;SDS011;10082;51.038;6.992;2023-04-03T09:35:22;1.30;;;0.82;;
19842;SDS011;10082;51.038;6.992;2023-04-03T09:37:52;2.22;;;0.90;;
19842;SDS011;10082;51.038;6.992;2023-04-03T09:40:30;2.40;;;0.90;;
19842;SDS011;10082;51.038;6.992;2023-04-03T09:43:23;2.35;;;1.10;;
19842;SDS011;10082;51.038;6.992;2023-04-03T09:45:53;1.75;;;0.93;;
19842;SDS011;10082;51.038;6.992;2023-04-03T09:48:21;2.72;;;1.10;;
19842;SDS011;10082;51.038;6.992;2023-04-03T09:50:57;2.88;;;1.30;;
19842;SDS011;10082;51.038;6.992;2023-04-03T09:53:30;2.53;;;1.10;;
19842;SDS011;10082;51.038;6.992;2023-04-03T09:56:18;1.75;;;0.98;;
19842;SDS011;10082;51.038;6.992;2023-04-03T09:58:49;1.80;;;1.00;;
19842;SDS011;10082;51.038;6.992;2023-04-03T10:01:26;2.13;;;1.10;;
19842;SDS011;10082;51.038;6.992;2023-04-03T10:04:05;2.55;;;0.95;;
19842;SDS011;10082;51.038;6.992;2023-04-03T10:06:36;2.13;;;0.90;;
19842;SDS011;10082;51.038;6.992;2023-04-03T10:09:15;1.02;;;0.93;;
19842;SDS011;10082;51.038;6.992;2023-04-03T10:11:58;2.72;;;1.00;;
19842;SDS011;10082;51.038;6.992;2023-04-03T10:14:30;1.65;;;1.15;;
19842;SDS011;10082;51.038;6.992;2023-04-03T10:17:00;2.70;;;1.00;;
19842;SDS011;10082;51.038;6.992;2023-04-03T10:19:34;1.60;;;1.48;;
19842;SDS011;10082;51.038;6.992;2023-04-03T10:22:09;1.40;;;0.90;;
19842;SDS011;10082;51.038;6.992;2023-04-03T10:24:56;1.67;;;1.02;;
19842;SDS011;10082;51.038;6.992;2023-04-03T10:27:47;3.08;;;1.23;;
19842;SDS011;10082;51.038;6.992;2023-04-03T10:30:21;2.35;;;0.98;;
19842;SDS011;10082;51.038;6.992;2023-04-03T10:33:05;2.60;;;1.00;;
19842;SDS011;10082;51.038;6.992;2023-04-03T10:35:45;1.90;;;0.80;;
19842;SDS011;10082;51.038;6.992;2023-04-03T10:38:23;1.58;;;0.95;;
19842;SDS011;10082;51.038;6.992;2023-04-03T10:41:01;2.05;;;1.30;;
19842;SDS011;10082;51.038;6.992;2023-04-03T10:43:39;2.15;;;1.02;;
19842;SDS011;10082;51.038;6.992;2023-04-03T10:46:11;1.80;;;1.10;;
19842;SDS011;10082;51.038;6.992;2023-04-03T10:48:57;2.22;;;0.90;;
19842;SDS011;10082;51.038;6.992;2023-04-03T10:51:39;1.92;;;0.90;;
19842;SDS011;10082;51.038;6.992;2023-04-03T10:54:11;1.35;;;0.82;;
19842;SDS011;10082;51.038;6.992;2023-04-03T10:56:47;1.80;;;0.80;;
19842;SDS011;10082;51.038;6.992;2023-04-03T10:59:23;1.83;;;0.85;;
19842;SDS011;10082;51.038;6.992;2023-04-03T11:01:56;1.50;;;0.80;;
19842;SDS011;10082;51.038;6.992;2023-04-03T11:04:27;1.55;;;1.10;;
19842;SDS011;10082;51.038;6.992;2023-04-03T11:07:07;0.70;;;0.68;;
19842;SDS011;10082;51.038;6.992;2023-04-03T11:09:40;1.00;;;0.88;;
19842;SDS011;10082;51.038;6.992;2023-04-03T11:12:12;0.95;;;0.73;;
19842;SDS011;10082;51.038;6.992;2023-04-03T11:14:51;0.73;;;0.68;;
19842;SDS011;10082;51.038;6.992;2023-04-03T11:17:23;1.05;;;0.80;;
19842;SDS011;10082;51.038;6.992;2023-04-03T11:20:05;0.95;;;0.75;;
19842;SDS011;10082;51.038;6.992;2023-04-03T11:22:42;1.38;;;0.80;;
19842;SDS011;10082;51.038;6.992;2023-04-03T11:25:14;1.60;;;0.80;;
19842;SDS011;10082;51.038;6.992;2023-04-03T11:27:49;2.17;;;0.98;;
19842;SDS011;10082;51.038;6.992;2023-04-03T11:30:23;0.95;;;0.70;;
19842;SDS011;10082;51.038;6.992;2023-04-03T11:35:58;1.85;;;0.90;;
19842;SDS011;10082;51.038;6.992;2023-04-03T11:38:33;2.17;;;0.77;;
19842;SDS011;10082;51.038;6.992;2023-04-03T11:41:06;1.33;;;0.70;;
19842;SDS011;10082;51.038;6.992;2023-04-03T11:43:39;1.58;;;0.70;;
19842;SDS011;10082;51.038;6.992;2023-04-03T11:46:10;0.93;;;0.77;;
19842;SDS011;10082;51.038;6.992;2023-04-03T11:48:42;1.38;;;0.70;;
19842;SDS011;10082;51.038;6.992;2023-04-03T12:06:42;1.33;;;0.60;;
19842;SDS011;10082;51.038;6.992;2023-04-03T12:09:35;1.10;;;0.75;;
19842;SDS011;10082;51.038;6.992;2023-04-03T12:12:26;1.10;;;0.70;;
19842;SDS011;10082;51.038;6.992;2023-04-03T12:24:27;1.40;;;0.85;;
19842;SDS011;10082;51.038;6.992;2023-04-03T12:27:02;1.00;;;0.68;;
19842;SDS011;10082;51.038;6.992;2023-04-03T12:29:36;0.60;;;0.60;;
19842;SDS011;10082;51.038;6.992;2023-04-03T12:32:13;0.85;;;0.80;;
19842;SDS011;10082;51.038;6.992;2023-04-03T12:34:52;1.45;;;0.80;;
19842;SDS011;10082;51.038;6.992;2023-04-03T12:40:27;0.70;;;0.70;;
19842;SDS011;10082;51.038;6.992;2023-04-03T12:43:10;1.52;;;0.70;;
19842;SDS011;10082;51.038;6.992;2023-04-03T12:45:58;1.63;;;0.90;;
19842;SDS011;10082;51.038;6.992;2023-04-03T12:48:30;1.50;;;0.60;;
19842;SDS011;10082;51.038;6.992;2023-04-03T12:50:58;1.58;;;0.70;;
19842;SDS011;10082;51.038;6.992;2023-04-03T12:53:28;0.90;;;0.80;;
19842;SDS011;10082;51.038;6.992;2023-04-03T12:58:50;1.48;;;0.80;;
19842;SDS011;10082;51.038;6.992;2023-04-03T13:01:19;1.05;;;0.70;;
19842;SDS011;10082;51.038;6.992;2023-04-03T13:03:49;0.73;;;0.68;;
19842;SDS011;10082;51.038;6.992;2023-04-03T13:06:19;1.20;;;0.60;;
19842;SDS011;10082;51.038;6.992;2023-04-03T13:08:51;1.05;;;0.77;;
19842;SDS011;10082;51.038;6.992;2023-04-03T13:11:19;1.33;;;0.82;;
19842;SDS011;10082;51.038;6.992;2023-04-03T13:13:54;1.25;;;0.90;;
19842;SDS011;10082;51.038;6.992;2023-04-03T13:16:22;2.50;;;0.90;;
19842;SDS011;10082;51.038;6.992;2023-04-03T13:18:50;0.98;;;0.90;;
19842;SDS011;10082;51.038;6.992;2023-04-03T13:21:18;0.88;;;0.77;;
19842;SDS011;10082;51.038;6.992;2023-04-03T13:23:50;1.77;;;0.70;;
19842;SDS011;10082;51.038;6.992;2023-04-03T13:26:20;1.30;;;0.88;;
19842;SDS011;10082;51.038;6.992;2023-04-03T13:28:51;2.22;;;1.10;;
19842;SDS011;10082;51.038;6.992;2023-04-03T13:31:20;0.90;;;0.70;;
19842;SDS011;10082;51.038;6.992;2023-04-03T13:33:54;1.48;;;0.95;;
19842;SDS011;10082;51.038;6.992;2023-04-03T13:36:27;1.50;;;1.00;;
19842;SDS011;10082;51.038;6.992;2023-04-03T13:39:00;2.05;;;0.98;;
19842;SDS011;10082;51.038;6.992;2023-04-03T13:41:31;1.33;;;0.90;;
19842;SDS011;10082;51.038;6.992;2023-04-03T13:44:16;1.40;;;0.88;;
19842;SDS011;10082;51.038;6.992;2023-04-03T13:46:53;1.10;;;0.95;;
19842;SDS011;10082;51.038;6.992;2023-04-03T13:49:22;1.30;;;1.00;;
19842;SDS011;10082;51.038;6.992;2023-04-03T13:51:57;1.05;;;0.90;;
19842;SDS011;10082;51.038;6.992;2023-04-03T13:54:28;2.55;;;1.10;;
19842;SDS011;10082;51.038;6.992;2023-04-03T13:57:00;2.50;;;1.02;;
19842;SDS011;10082;51.038;6.992;2023-04-03T13:59:29;1.75;;;1.00;;
19842;SDS011;10082;51.038;6.992;2023-04-03T14:02:09;1.38;;;1.02;;
19842;SDS011;10082;51.038;6.992;2023-04-03T14:04:49;1.52;;;1.10;;
19842;SDS011;10082;51.038;6.992;2023-04-03T14:07:21;2.25;;;1.25;;
19842;SDS011;10082;51.038;6.992;2023-04-03T14:09:50;2.03;;;1.10;;
19842;SDS011;10082;51.038;6.992;2023-04-03T14:12:24;1.98;;;0.90;;
19842;SDS011;10082;51.038;6.992;2023-04-03T14:14:54;1.90;;;1.27;;
19842;SDS011;10082;51.038;6.992;2023-04-03T14:17:22;1.98;;;1.13;;
19842;SDS011;10082;51.038;6.992;2023-04-03T14:19:51;2.17;;;1.10;;
19842;SDS011;10082;51.038;6.992;2023-04-03T14:22:22;1.42;;;1.00;;
19842;SDS011;10082;51.038;6.992;2023-04-03T14:24:51;1.38;;;1.00;;
19842;SDS011;10082;51.038;6.992;2023-04-03T14:27:23;1.70;;;0.93;;
19842;SDS011;10082;51.038;6.992;2023-04-03T14:29:54;2.50;;;1.25;;
19842;SDS011;10082;51.038;6.992;2023-04-03T14:32:23;1.23;;;0.95;;
19842;SDS011;10082;51.038;6.992;2023-04-03T14:34:52;0.80;;;0.80;;
19842;SDS011;10082;51.038;6.992;2023-04-03T14:37:21;2.03;;;1.15;;
19842;SDS011;10082;51.038;6.992;2023-04-03T14:39:52;1.85;;;1.10;;
19842;SDS011;10082;51.038;6.992;2023-04-03T14:42:21;1.55;;;1.00;;
19842;SDS011;10082;51.038;6.992;2023-04-03T14:44:55;2.20;;;1.20;;
19842;SDS011;10082;51.038;6.992;2023-04-03T14:47:24;1.88;;;1.33;;
19842;SDS011;10082;51.038;6.992;2023-04-03T14:49:53;1.33;;;0.85;;
19842;SDS011;10082;51.038;6.992;2023-04-03T14:52:23;1.60;;;1.10;;
19842;SDS011;10082;51.038;6.992;2023-04-03T14:54:52;1.40;;;1.30;;
19842;SDS011;10082;51.038;6.992;2023-04-03T14:57:20;1.42;;;1.15;;
19842;SDS011;10082;51.038;6.992;2023-04-03T14:59:51;3.58;;;1.10;;
19842;SDS011;10082;51.038;6.992;2023-04-03T15:02:24;2.17;;;1.17;;
19842;SDS011;10082;51.038;6.992;2023-04-03T15:04:53;2.25;;;1.20;;
19842;SDS011;10082;51.038;6.992;2023-04-03T15:07:21;1.63;;;1.20;;
19842;SDS011;10082;51.038;6.992;2023-04-03T15:09:49;2.28;;;1.30;;
19842;SDS011;10082;51.038;6.992;2023-04-03T15:12:16;1.75;;;1.10;;
19842;SDS011;10082;51.038;6.992;2023-04-03T15:14:45;2.42;;;1.02;;
19842;SDS011;10082;51.038;6.992;2023-04-03T15:17:14;1.40;;;0.90;;
19842;SDS011;10082;51.038;6.992;2023-04-03T15:19:46;1.23;;;1.08;;
19842;SDS011;10082;51.038;6.992;2023-04-03T15:22:13;1.70;;;1.30;;
19842;SDS011;10082;51.038;6.992;2023-04-03T15:24:43;1.52;;;1.20;;
19842;SDS011;10082;51.038;6.992;2023-04-03T15:27:10;1.92;;;1.10;;
19842;SDS011;10082;51.038;6.992;2023-04-03T15:29:39;2.00;;;1.13;;
19842;SDS011;10082;51.038;6.992;2023-04-03T15:32:10;2.03;;;1.20;;
19842;SDS011;10082;51.038;6.992;2023-04-03T15:34:39;1.58;;;1.08;;
19842;SDS011;10082;51.038;6.992;2023-04-03T15:37:07;1.95;;;1.52;;
19842;SDS011;10082;51.038;6.992;2023-04-03T15:39:34;1.65;;;1.20;;
19842;SDS011;10082;51.038;6.992;2023-04-03T15:42:01;2.08;;;1.20;;
19842;SDS011;10082;51.038;6.992;2023-04-03T15:44:31;1.60;;;1.23;;
19842;SDS011;10082;51.038;6.992;2023-04-03T15:47:00;3.28;;;1.20;;
19842;SDS011;10082;51.038;6.992;2023-04-03T15:49:29;3.35;;;1.40;;
19842;SDS011;10082;51.038;6.992;2023-04-03T15:51:57;2.35;;;1.30;;